地図

経路データ

SID SEASON NUMBER BASIN SUBBASIN NAME ISO_TIME NATURE LAT LON WMO_WIND WMO_PRES WMO_AGENCY TRACK_TYPE DIST2LAND LANDFALL IFLAG USA_AGENCY USA_ATCF_ID USA_LAT USA_LON USA_RECORD USA_STATUS USA_WIND USA_PRES USA_SSHS USA_R34_NE USA_R34_SE USA_R34_SW USA_R34_NW USA_R50_NE USA_R50_SE USA_R50_SW USA_R50_NW USA_R64_NE USA_R64_SE USA_R64_SW USA_R64_NW USA_POCI USA_ROCI USA_RMW USA_EYE TOKYO_LAT TOKYO_LON TOKYO_GRADE TOKYO_WIND TOKYO_PRES TOKYO_R50_DIR TOKYO_R50_LONG TOKYO_R50_SHORT TOKYO_R30_DIR TOKYO_R30_LONG TOKYO_R30_SHORT TOKYO_LAND CMA_LAT CMA_LON CMA_CAT CMA_WIND CMA_PRES HKO_LAT HKO_LON HKO_CAT HKO_WIND HKO_PRES NEWDELHI_LAT NEWDELHI_LON NEWDELHI_GRADE NEWDELHI_WIND NEWDELHI_PRES NEWDELHI_CI NEWDELHI_DP NEWDELHI_POCI REUNION_LAT REUNION_LON REUNION_TYPE REUNION_WIND REUNION_PRES REUNION_TNUM REUNION_CI REUNION_RMW REUNION_R34_NE REUNION_R34_SE REUNION_R34_SW REUNION_R34_NW REUNION_R50_NE REUNION_R50_SE REUNION_R50_SW REUNION_R50_NW REUNION_R64_NE REUNION_R64_SE REUNION_R64_SW REUNION_R64_NW BOM_LAT BOM_LON BOM_TYPE BOM_WIND BOM_PRES BOM_TNUM BOM_CI BOM_RMW BOM_R34_NE BOM_R34_SE BOM_R34_SW BOM_R34_NW BOM_R50_NE BOM_R50_SE BOM_R50_SW BOM_R50_NW BOM_R64_NE BOM_R64_SE BOM_R64_SW BOM_R64_NW BOM_ROCI BOM_POCI BOM_EYE BOM_POS_METHOD BOM_PRES_METHOD NADI_LAT NADI_LON NADI_CAT NADI_WIND NADI_PRES WELLINGTON_LAT WELLINGTON_LON WELLINGTON_WIND WELLINGTON_PRES DS824_LAT DS824_LON DS824_STAGE DS824_WIND DS824_PRES TD9636_LAT TD9636_LON TD9636_STAGE TD9636_WIND TD9636_PRES TD9635_LAT TD9635_LON TD9635_WIND TD9635_PRES TD9635_ROCI NEUMANN_LAT NEUMANN_LON NEUMANN_CLASS NEUMANN_WIND NEUMANN_PRES MLC_LAT MLC_LON MLC_CLASS MLC_WIND MLC_PRES USA_GUST BOM_GUST BOM_GUST_PER REUNION_GUST REUNION_GUST_PER USA_SEAHGT USA_SEARAD_NE USA_SEARAD_SE USA_SEARAD_SW USA_SEARAD_NW STORM_SPEED STORM_DIR
1936308N09075 1936 62 NI AS NOT_NAMED 1936-11-03 00:00:00 TS 9.20000 75.3000 main 112 112 _________O____ -1 9.20000 75.3000 TC 30 1 241
1936308N09075 1936 62 NI AS NOT_NAMED 1936-11-03 03:00:00 TS 9.16666 75.2417 main 122 122 _________PO___ -1 9.14999 75.2125 TC 30 9.20000 75.3000 1 2 244
1936308N09075 1936 62 NI AS NOT_NAMED 1936-11-03 06:00:00 TS 9.11813 75.1312 main 136 136 _________OP___ -1 9.10000 75.1000 TC 30 9.14533 75.1781 1 3 248
1936308N09075 1936 62 NI AS NOT_NAMED 1936-11-03 09:00:00 TS 9.06823 74.9950 main 146 146 _________PP___ -1 9.05001 74.9500 TC 30 9.09252 75.0550 1 3 250
1936308N09075 1936 62 NI AS NOT_NAMED 1936-11-03 12:00:00 TS 9.02172 74.8647 main 160 160 _________OP___ -1 9.00000 74.8000 TC 30 9.04344 74.9294 1 3 248
1936308N09075 1936 62 NI AS NOT_NAMED 1936-11-03 15:00:00 TS 8.97124 74.7500 main 170 170 _________PO___ -1 8.94248 74.7000 TC 30 9.00000 74.8000 1 2 248
1936308N09075 1936 62 NI AS NOT_NAMED 1936-11-03 18:00:00 TS 8.93188 74.6334 main 195 195 _________OP___ -1 8.90000 74.6000 TC 30 8.96375 74.6669 1 3 257
1936308N09075 1936 62 NI AS NOT_NAMED 1936-11-03 21:00:00 TS 8.91376 74.4925 main 205 205 _________PP___ -1 8.89251 74.4500 TC 30 8.93501 74.5350 1 3 265
1936308N09075 1936 62 NI AS NOT_NAMED 1936-11-04 00:00:00 TS 8.90688 74.3553 main 216 216 _________OP___ -1 8.90000 74.3000 TC 30 8.91376 74.4106 1 2 267
1936308N09075 1936 62 NI AS NOT_NAMED 1936-11-04 03:00:00 TS 8.90000 74.2425 main 237 237 _________PO___ -1 8.89999 74.1850 TC 30 8.90000 74.3000 1 2 267
1936308N09075 1936 62 NI AS NOT_NAMED 1936-11-04 06:00:00 TS 8.89639 74.1553 main 237 237 _________OP___ -1 8.90000 74.1000 TC 30 8.89279 74.2106 1 1 269
1936308N09075 1936 62 NI AS NOT_NAMED 1936-11-04 09:00:00 TS 8.89623 74.0925 main 248 248 _________PP___ -1 8.89999 74.0500 TC 30 8.89247 74.1350 1 1 271
1936308N09075 1936 62 NI AS NOT_NAMED 1936-11-04 12:00:00 TS 8.89796 74.0334 main 258 258 _________OP___ -1 8.90000 74.0000 TC 30 8.89592 74.0669 1 1 272
1936308N09075 1936 62 NI AS NOT_NAMED 1936-11-04 15:00:00 TS 8.90000 73.9500 main 258 269 _________PO___ -1 8.90001 73.9000 TC 30 8.90000 74.0000 1 2 271
1936308N09075 1936 62 NI AS NOT_NAMED 1936-11-04 18:00:00 TS 8.90000 73.8564 main 269 269 _________OP___ -1 8.90000 73.8000 TC 30 8.90001 73.9128 1 2 270
1936308N09075 1936 62 NI AS NOT_NAMED 1936-11-04 21:00:00 TS 8.90000 73.7812 main 280 280 _________PP___ -1 8.90000 73.7350 TC 30 8.90001 73.8275 1 1 270
1936308N09075 1936 62 NI AS NOT_NAMED 1936-11-05 00:00:00 TS 8.90000 73.7267 main 291 291 _________OP___ -1 8.90000 73.7000 TC 30 8.90001 73.7534 1 1 270
1936308N09075 1936 62 NI AS NOT_NAMED 1936-11-05 03:00:00 TS 8.90000 73.6962 main 291 291 _________PO___ -1 8.90000 73.6925 TC 30 8.90000 73.7000 1 0 270
1936308N09075 1936 62 NI AS NOT_NAMED 1936-11-05 06:00:00 TS 8.89999 73.6892 main 291 291 _________OP___ -1 8.90000 73.7000 TC 30 8.89999 73.6784 1 0 0
1936308N09075 1936 62 NI AS NOT_NAMED 1936-11-05 09:00:00 TS 8.89999 73.6888 main 291 291 _________PP___ -1 8.90000 73.7000 TC 30 8.89999 73.6775 1 0 0
1936308N09075 1936 62 NI AS NOT_NAMED 1936-11-05 12:00:00 TS 8.90000 73.6939 main 291 291 _________OP___ -1 8.90000 73.7000 TC 30 8.89999 73.6878 1 0 0
1936308N09075 1936 62 NI AS NOT_NAMED 1936-11-05 15:00:00 TS 8.90000 73.7000 main 291 291 _________PO___ -1 8.90000 73.7000 TC 30 8.90000 73.7000 1 0 0
1936308N09075 1936 62 NI AS NOT_NAMED 1936-11-05 18:00:00 TS 8.89389 73.7142 main 291 291 _________OP___ -1 8.90000 73.7000 TC 30 8.88778 73.7284 1 0 112
1936308N09075 1936 62 NI AS NOT_NAMED 1936-11-05 21:00:00 TS 8.88497 73.7375 main 291 291 _________PP___ -1 8.89249 73.7225 TC 30 8.87745 73.7524 1 0 0
1936308N09075 1936 62 NI AS NOT_NAMED 1936-11-06 00:00:00 TS 8.88919 73.7251 main 291 291 _________OP___ -1 8.90000 73.7000 TC 30 8.87839 73.7503 1 1 288
1936308N09075 1936 62 NI AS NOT_NAMED 1936-11-06 03:00:00 TS 8.91750 73.6400 main 301 301 _________PO___ -1 8.93500 73.5800 TC 30 8.90000 73.7000 1 3 289
1936308N09075 1936 62 NI AS NOT_NAMED 1936-11-06 06:00:00 TS 8.96863 73.4836 main 310 310 _________OP___ -1 9.00000 73.4000 TC 30 8.93726 73.5672 1 4 290
1936308N09075 1936 62 NI AS NOT_NAMED 1936-11-06 09:00:00 TS 9.04131 73.2937 main 332 331 _________PP___ -1 9.08501 73.2000 TC 30 8.99760 73.3875 1 4 294
1936308N09075 1936 62 NI AS NOT_NAMED 1936-11-06 12:00:00 TS 9.14207 73.0945 main 353 351 _________OP___ -1 9.20000 73.0000 TC 30 9.08414 73.1890 1 4 301
1936308N09075 1936 62 NI AS NOT_NAMED 1936-11-06 15:00:00 TS 9.26750 72.9175 main 369 369 _________PO___ -1 9.33499 72.8350 TC 30 9.20000 73.0000 1 4 311
1936308N09075 1936 62 NI AS NOT_NAMED 1936-11-06 18:00:00 TS 9.40481 72.7863 main 374 374 _________OP___ -1 9.50000 72.7000 TC 30 9.30963 72.8726 1 4 321
1936308N09075 1936 62 NI AS NOT_NAMED 1936-11-06 21:00:00 TS 9.55744 72.6823 main 375 375 _________PP___ -1 9.66247 72.6074 TC 30 9.45241 72.7572 1 4 330
1936308N09075 1936 62 NI AS NOT_NAMED 1936-11-07 00:00:00 TS 9.77200 72.5691 main 376 370 _________OP___ -1 9.90000 72.5000 TC 30 9.64400 72.6382 1 6 333
1936308N09075 1936 62 NI AS NOT_NAMED 1936-11-07 03:00:00 TS 10.0850 72.4075 main 372 363 _________PO___ -1 10.2700 72.3150 TC 30 9.90000 72.5000 1 8 333
1936308N09075 1936 62 NI AS NOT_NAMED 1936-11-07 06:00:00 TS 10.4718 72.2028 main 367 362 _________OP___ -1 10.7000 72.1000 TC 30 10.2435 72.3056 1 9 333
1936308N09075 1936 62 NI AS NOT_NAMED 1936-11-07 09:00:00 TS 10.8776 71.9890 main 367 362 _________PP___ -1 11.1075 71.8850 TC 30 10.6476 72.0929 1 9 334
1936308N09075 1936 62 NI AS NOT_NAMED 1936-11-07 12:00:00 TS 11.2890 71.7919 main 367 362 _________OP___ -1 11.5000 71.7000 TC 30 11.0779 71.8837 1 9 337
1936308N09075 1936 62 NI AS NOT_NAMED 1936-11-07 15:00:00 TS 11.6787 71.6425 main 369 359 _________PO___ -1 11.8575 71.5849 TC 30 11.5000 71.7000 1 8 341
1936308N09075 1936 62 NI AS NOT_NAMED 1936-11-07 18:00:00 TS 12.0504 71.5295 main 367 362 _________OP___ -1 12.2000 71.5000 TC 30 11.9008 71.5590 1 8 344
1936308N09075 1936 62 NI AS NOT_NAMED 1936-11-07 21:00:00 TS 12.4312 71.4162 main 371 364 _________PP___ -1 12.5800 71.3850 TC 30 12.2824 71.4474 1 7 345
1936308N09075 1936 62 NI AS NOT_NAMED 1936-11-08 00:00:00 TS 12.7614 71.3311 main 372 363 _________OP___ -1 12.9000 71.3000 TC 30 12.6228 71.3621 1 6 348
1936308N09075 1936 62 NI AS NOT_NAMED 1936-11-08 03:00:00 TS 12.9937 71.2962 main 363 357 _________PO___ -1 13.0875 71.2924 TC 30 12.9000 71.3000 1 4 352
1936308N09075 1936 62 NI AS NOT_NAMED 1936-11-08 06:00:00 TS 13.1448 71.2787 main 357 345 _________OP___ -1 13.2000 71.3000 TC 30 13.0896 71.2573 1 3 349
1936308N09075 1936 62 NI AS NOT_NAMED 1936-11-08 09:00:00 TS 13.2625 71.2461 main 354 347 _________PP___ -1 13.3075 71.2575 TC 30 13.2174 71.2348 1 2 343
1936308N09075 1936 62 NI AS NOT_NAMED 1936-11-08 12:00:00 TS 13.3558 71.2099 main 347 347 _________OP___ -1 13.4000 71.2000 TC 30 13.3115 71.2199 1 2 338
1936308N09075 1936 62 NI AS NOT_NAMED 1936-11-08 15:00:00 TS 13.4462 71.1750 main 347 341 _________PO___ -1 13.4925 71.1500 TC 30 13.4000 71.2000 1 2 339
1936308N09075 1936 62 NI AS NOT_NAMED 1936-11-08 18:00:00 TS 13.5645 71.1266 main 345 339 _________OP___ -1 13.6000 71.1000 TC 30 13.5291 71.1531 1 3 340
1936308N09075 1936 62 NI AS NOT_NAMED 1936-11-08 21:00:00 TS 13.7038 71.0750 main 339 334 _________PP___ -1 13.7500 71.0500 TC 30 13.6575 71.1000 1 3 340
1936308N09075 1936 62 NI AS NOT_NAMED 1936-11-09 00:00:00 TS 13.8411 71.0235 main 344 340 _________OP___ -1 13.9000 71.0000 TC 30 13.7822 71.0469 1 3 339
1936308N09075 1936 62 NI AS NOT_NAMED 1936-11-09 03:00:00 TS 13.9537 70.9713 main 335 335 _________PO___ -1 14.0075 70.9425 TC 30 13.9000 71.0000 1 2 338
1936308N09075 1936 62 NI AS NOT_NAMED 1936-11-09 06:00:00 TS 14.0516 70.9359 main 341 341 _________OP___ -1 14.1000 70.9000 TC 30 14.0031 70.9718 1 2 347
1936308N09075 1936 62 NI AS NOT_NAMED 1936-11-09 09:00:00 TS 14.1462 70.9250 main 341 338 _________PP___ -1 14.1925 70.9000 TC 30 14.1000 70.9499 1 2 354
1936308N09075 1936 62 NI AS NOT_NAMED 1936-11-09 12:00:00 TS 14.2484 70.9140 main 338 329 _________OP___ -1 14.3000 70.9000 TC 30 14.1969 70.9281 1 2 353
1936308N09075 1936 62 NI AS NOT_NAMED 1936-11-09 15:00:00 TS 14.3750 70.8788 main 329 329 _________PO___ -1 14.4500 70.8575 TC 30 14.3000 70.9000 1 3 341
1936308N09075 1936 62 NI AS NOT_NAMED 1936-11-09 18:00:00 TS 14.4988 70.8266 main 334 330 _________OP___ -1 14.6000 70.8000 TC 30 14.3975 70.8531 1 2 336
1936308N09075 1936 62 NI AS NOT_NAMED 1936-11-09 21:00:00 TS 14.5950 70.7750 main 330 330 _________PP___ -1 14.6850 70.7500 TC 30 14.5050 70.8000 1 2 335
1936308N09075 1936 62 NI AS NOT_NAMED 1936-11-10 00:00:00 TS 14.7175 70.7234 main 337 328 _________OP___ -1 14.8000 70.7000 TC 30 14.6350 70.7469 1 3 343
1936308N09075 1936 62 NI AS NOT_NAMED 1936-11-10 03:00:00 TS 14.9138 70.6713 main 328 324 _________PO___ -1 15.0275 70.6425 TC 30 14.8000 70.7000 1 5 349
1936308N09075 1936 62 NI AS NOT_NAMED 1936-11-10 06:00:00 TS 15.1570 70.6299 main 323 313 _________OP___ -1 15.3000 70.6000 TC 30 15.0141 70.6597 1 5 353
1936308N09075 1936 62 NI AS NOT_NAMED 1936-11-10 09:00:00 TS 15.4063 70.6100 main 313 302 _________PP___ -1 15.5500 70.5925 TC 30 15.2625 70.6276 1 5 358
1936308N09075 1936 62 NI AS NOT_NAMED 1936-11-10 12:00:00 TS 15.6648 70.6033 main 302 296 _________OP___ -1 15.8000 70.6000 TC 30 15.5297 70.6066 1 5 359
1936308N09075 1936 62 NI AS NOT_NAMED 1936-11-10 15:00:00 TS 15.9250 70.5963 main 296 290 _________PO___ -1 16.0500 70.5925 TC 30 15.8000 70.6000 1 5 0
1936308N09075 1936 62 NI AS NOT_NAMED 1936-11-10 18:00:00 TS 16.1750 70.6073 main 290 288 _________OP___ -1 16.3000 70.6000 TC 30 16.0500 70.6146 1 5 5
1936308N09075 1936 62 NI AS NOT_NAMED 1936-11-10 21:00:00 TS 16.4250 70.6462 main 288 274 _________PP___ -1 16.5500 70.6500 TC 30 16.3000 70.6424 1 5 9
1936308N09075 1936 62 NI AS NOT_NAMED 1936-11-11 00:00:00 TS 16.6750 70.6870 main 274 266 _________OP___ -1 16.8000 70.7000 TC 30 16.5500 70.6740 1 5 7
1936308N09075 1936 62 NI AS NOT_NAMED 1936-11-11 03:00:00 TS 16.9250 70.7038 main 266 258 _________PO___ -1 17.0500 70.7075 TC 30 16.8000 70.7000 1 5 0
1936308N09075 1936 62 NI AS NOT_NAMED 1936-11-11 06:00:00 TS 17.1709 70.7056 main 258 249 _________OP___ -1 17.3000 70.7000 TC 30 17.0419 70.7113 1 5 3
1936308N09075 1936 62 NI AS NOT_NAMED 1936-11-11 09:00:00 TS 17.4137 70.7075 main 249 239 _________PP___ -1 17.5425 70.7000 TC 30 17.2850 70.7150 1 5 358
1936308N09075 1936 62 NI AS NOT_NAMED 1936-11-11 12:00:00 TS 17.6678 70.7056 main 239 235 _________OP___ -1 17.8000 70.7000 TC 30 17.5356 70.7112 1 5 0
1936308N09075 1936 62 NI AS NOT_NAMED 1936-11-11 15:00:00 TS 17.9462 70.7037 main 235 232 _________PO___ -1 18.0925 70.7075 TC 30 17.8000 70.7000 1 6 358
1936308N09075 1936 62 NI AS NOT_NAMED 1936-11-11 18:00:00 TS 18.2530 70.6972 main 231 223 _________OP___ -1 18.4000 70.7000 TC 30 18.1059 70.6943 1 6 356
1936308N09075 1936 62 NI AS NOT_NAMED 1936-11-11 21:00:00 TS 18.5687 70.6725 main 223 213 _________PP___ -1 18.7150 70.6650 TC 30 18.4225 70.6799 1 6 354
1936308N09075 1936 62 NI AS NOT_NAMED 1936-11-12 00:00:00 TS 18.8639 70.6253 main 202 180 _________OP___ -1 19.0000 70.6000 TC 30 18.7278 70.6506 1 6 348
1936308N09075 1936 62 NI AS NOT_NAMED 1936-11-12 03:00:00 TS 19.1113 70.5537 main 180 159 _________PO___ -1 19.2225 70.5075 TC 30 19.0000 70.6000 1 5 341
1936308N09075 1936 62 NI AS NOT_NAMED 1936-11-12 06:00:00 TS 19.3055 70.4648 main 159 140 _________OP___ -1 19.4000 70.4000 TC 30 19.2109 70.5296 1 4 335
1936308N09075 1936 62 NI AS NOT_NAMED 1936-11-12 09:00:00 TS 19.4725 70.3724 main 140 133 _________PP___ -1 19.5575 70.3074 TC 30 19.3875 70.4374 1 4 329
1936308N09075 1936 62 NI AS NOT_NAMED 1936-11-12 12:00:00 TS 19.6226 70.2632 main 133 124 _________OP___ -1 19.7000 70.2000 TC 30 19.5453 70.3265 1 4 322
1936308N09075 1936 62 NI AS NOT_NAMED 1936-11-12 15:00:00 TS 19.7713 70.1287 main 124 115 _________PO___ -1 19.8425 70.0575 TC 30 19.7000 70.2000 1 4 320
1936308N09075 1936 62 NI AS NOT_NAMED 1936-11-12 18:00:00 TS 19.9355 69.9801 main 122 109 _________OP___ -1 20.0000 69.9000 TC 30 19.8710 70.0603 1 4 321
1936308N09075 1936 62 NI AS NOT_NAMED 1936-11-12 21:00:00 TS 20.1175 69.8287 main 115 103 _________PP___ -1 20.1925 69.7500 TC 30 20.0426 69.9075 1 5 323
1936308N09075 1936 62 NI AS NOT_NAMED 1936-11-13 00:00:00 TS 20.3089 69.6755 main 103 91 _________OP___ -1 20.4000 69.6000 TC 30 20.2178 69.7509 1 5 323
1936308N09075 1936 62 NI AS NOT_NAMED 1936-11-13 03:00:00 TS 20.5000 69.5212 main 98 91 _________PO___ -1 20.6000 69.4425 TC 30 20.4000 69.6000 1 5 325
1936308N09075 1936 62 NI AS NOT_NAMED 1936-11-13 06:00:00 TS 20.6943 69.3838 main 91 83 _________OP___ -1 20.8000 69.3000 TC 30 20.5887 69.4677 1 5 329
1936308N09075 1936 62 NI AS NOT_NAMED 1936-11-13 09:00:00 TS 20.8924 69.2711 main 83 76 _________PP___ -1 21.0000 69.1999 TC 30 20.7849 69.3423 1 5 332
1936308N09075 1936 62 NI AS NOT_NAMED 1936-11-13 12:00:00 TS 21.0944 69.1604 main 76 68 _________OP___ -1 21.2000 69.1000 TC 30 20.9887 69.2208 1 5 330
1936308N09075 1936 62 NI AS NOT_NAMED 1936-11-13 15:00:00 TS 21.2963 69.0250 main 76 68 _________PO___ -1 21.3925 68.9500 TC 30 21.2000 69.1000 1 5 329
1936308N09075 1936 62 NI AS NOT_NAMED 1936-11-13 18:00:00 TS 21.4963 68.9014 main 68 60 _________OP___ -1 21.6000 68.8000 TC 30 21.4185 68.9774 1 5 332
1936308N09075 1936 62 NI AS NOT_NAMED 1936-11-13 21:00:00 TS 21.7216 68.7867 main 60 49 _________PP___ -1 21.8400 68.6875 TC 30 21.6426 68.8529 1 5 336
1936308N09075 1936 62 NI AS NOT_NAMED 1936-11-14 00:00:00 TS 21.9469 68.6846 main 49 38 _________OP___ -1 22.1000 68.6000 TC 30 21.8704 68.7269 1 4 336
1936308N09075 1936 62 NI AS NOT_NAMED 1936-11-14 03:00:00 NR 22.1000 68.6000 main 38 __________O___ -1 TC 22.1000 68.6000 1 3 333

IBTrACS Databaseについて

本データベースは、米国NOAAが公開する1842年以降の世界の熱帯低気圧のベストトラックデータアーカイブInternational Best Track Archive for Climate Stewardship (IBTrACS)を、ウェブで閲覧しやすい形式に変換したものです。

最終更新日:2021-12-06